Time;durP1;ratioP1;P1;durP2;ratioP2;P2;SDS_P1;SDS_P2;PMS_P1;PMS_P2;Temp;Humidity;BMP_temperature;BMP_pressure;BME280_temperature;BME280_humidity;BME280_pressure;Samples;Min_cycle;Max_cycle;Signal;HPM_P1;HPM_P2
2022/05/20 00:01:57;;;;;;;7.20;2.28;;;;;;;19.73;72.97;101043.09;5061911;28;20074;-70
2022/05/20 00:04:26;;;;;;;3.45;2.30;;;;;;;19.70;73.36;101050.53;5061827;28;20525;-70
2022/05/20 00:06:53;;;;;;;6.80;2.13;;;;;;;19.67;73.79;101057.00;5043282;28;20059;-70
2022/05/20 00:09:21;;;;;;;5.50;2.83;;;;;;;19.64;73.91;101057.28;5061396;28;20155;-71
2022/05/20 00:11:48;;;;;;;3.35;2.22;;;;;;;19.61;74.36;101068.25;5044439;28;20048;-70
2022/05/20 00:14:16;;;;;;;5.07;2.63;;;;;;;19.57;74.82;101071.28;5062565;28;20055;-71
2022/05/20 00:16:43;;;;;;;6.43;2.75;;;;;;;19.53;75.69;101069.88;5048146;28;20063;-71
2022/05/20 00:19:11;;;;;;;7.35;2.25;;;;;;;19.47;76.24;101071.28;5063012;28;20052;-71
2022/05/20 00:21:41;;;;;;;5.75;2.03;;;;;;;19.45;76.28;101078.56;5062356;28;20056;-71
2022/05/20 00:24:08;;;;;;;5.35;2.47;;;;;;;19.43;76.59;101075.19;5050912;28;20510;-71
2022/05/20 00:26:37;;;;;;;3.10;2.00;;;;;;;19.38;77.24;101082.78;5066839;28;20495;-71
2022/05/20 00:29:04;;;;;;;4.35;2.35;;;;;;;19.31;77.95;101078.94;5060743;28;20116;-71
2022/05/20 00:31:32;;;;;;;4.20;2.42;;;;;;;19.25;78.54;101084.84;5047047;28;20052;-70
2022/05/20 00:33:59;;;;;;;5.50;2.38;;;;;;;19.21;79.10;101070.91;5058390;28;20070;-70
2022/05/20 00:36:27;;;;;;;3.70;2.90;;;;;;;19.13;79.83;101076.91;5046830;28;20044;-72
2022/05/20 00:38:54;;;;;;;5.30;2.47;;;;;;;19.11;79.24;101080.72;5060945;28;20056;-70
2022/05/20 00:41:22;;;;;;;9.32;2.90;;;;;;;19.05;80.36;101087.44;5063540;28;20548;-72
2022/05/20 00:43:50;;;;;;;8.27;2.60;;;;;;;18.98;80.87;101080.94;5060387;28;20672;-70
2022/05/20 00:46:20;;;;;;;5.43;2.67;;;;;;;18.91;81.80;101085.97;5061377;28;20059;-71
2022/05/20 00:48:59;;;;;;;6.32;2.50;;;;;;;18.92;81.56;101078.81;5044980;28;20048;-70
2022/05/20 00:51:31;;;;;;;5.45;2.63;;;;;;;18.85;82.26;101074.97;5061645;28;20048;-70
2022/05/20 00:54:06;;;;;;;6.63;2.53;;;;;;;18.82;82.30;101084.09;5061556;28;20264;-71
2022/05/20 00:56:39;;;;;;;4.93;2.45;;;;;;;18.78;82.56;101077.34;5051177;28;20041;-71
2022/05/20 00:59:08;;;;;;;3.05;2.42;;;;;;;18.74;82.70;101083.91;5052509;28;20041;-71
2022/05/20 01:01:36;;;;;;;5.28;2.63;;;;;;;18.66;83.63;101089.88;5048306;28;20528;-72
2022/05/20 01:04:05;;;;;;;7.05;2.70;;;;;;;18.65;83.69;101088.19;5043755;28;22129;-70
2022/05/20 01:06:33;;;;;;;18.83;3.05;;;;;;;18.59;83.86;101080.69;5047245;28;20082;-70
2022/05/20 01:09:00;;;;;;;3.55;2.30;;;;;;;18.58;84.02;101102.16;5050495;28;20045;-71
2022/05/20 01:11:28;;;;;;;6.43;2.30;;;;;;;18.54;84.95;101103.41;5048440;28;20116;-70
2022/05/20 01:13:55;;;;;;;9.30;2.97;;;;;;;18.46;85.30;101106.69;5063041;28;20064;-71
2022/05/20 01:16:23;;;;;;;3.42;2.50;;;;;;;18.43;85.36;101096.31;5065442;28;20520;-71
2022/05/20 01:18:53;;;;;;;4.18;2.67;;;;;;;18.39;85.67;101097.53;5053074;28;20048;-70
2022/05/20 01:21:20;;;;;;;4.25;2.63;;;;;;;18.34;86.19;101115.75;5043750;28;22026;-70
2022/05/20 01:23:48;;;;;;;4.70;2.50;;;;;;;18.29;86.65;101112.63;5039979;28;20821;-71
2022/05/20 01:26:16;;;;;;;4.90;2.65;;;;;;;18.25;87.58;101120.03;5047452;28;20049;-71
2022/05/20 01:28:43;;;;;;;4.15;3.00;;;;;;;18.18;88.39;101118.84;5061326;28;20056;-71
2022/05/20 01:31:13;;;;;;;4.35;3.03;;;;;;;18.13;88.92;101113.88;5072503;28;20063;-70
2022/05/20 01:33:43;;;;;;;4.60;3.15;;;;;;;18.05;89.85;101110.16;5037671;28;20053;-70
2022/05/20 01:36:14;;;;;;;5.07;3.38;;;;;;;18.00;90.47;101120.34;5043956;28;20439;-69
2022/05/20 01:38:42;;;;;;;8.13;4.10;;;;;;;17.91;91.47;101122.78;5057222;28;20044;-70
2022/05/20 01:41:21;;;;;;;7.20;3.78;;;;;;;17.85;92.06;101130.47;5065695;28;20047;-71
2022/05/20 01:44:12;;;;;;;4.20;3.53;;;;;;;17.81;91.86;101127.19;5051837;28;20045;-71
2022/05/20 01:46:41;;;;;;;7.20;3.72;;;;;;;17.76;92.99;101123.22;5063387;28;20305;-72
2022/05/20 01:49:22;;;;;;;7.55;3.83;;;;;;;17.75;93.21;101134.84;5054158;28;20065;-71
2022/05/20 01:51:53;;;;;;;9.02;3.97;;;;;;;17.70;93.88;101140.50;5039542;28;20052;-71
2022/05/20 01:54:30;;;;;;;6.65;4.60;;;;;;;17.66;93.92;101142.56;5047492;28;20161;-70
2022/05/20 01:57:42;;;;;;;12.90;4.88;;;;;;;17.67;93.76;101151.41;5061090;28;20067;-69
2022/05/20 02:00:12;;;;;;;6.95;5.00;;;;;;;17.61;94.35;101160.72;5063749;28;20048;-71
2022/05/20 02:02:46;;;;;;;11.05;5.05;;;;;;;17.54;95.07;101154.19;5064677;28;20045;-70
2022/05/20 02:05:23;;;;;;;7.95;4.88;;;;;;;17.52;95.88;101169.47;5029158;28;20088;-70
2022/05/20 02:07:55;;;;;;;5.85;4.80;;;;;;;17.45;96.44;101165.56;5044030;28;20071;-70
2022/05/20 02:10:29;;;;;;;6.05;4.90;;;;;;;17.46;96.85;101165.44;5048201;28;20078;-71
2022/05/20 02:12:59;;;;;;;7.32;5.95;;;;;;;17.41;97.20;101162.31;5030179;28;20245;-71
2022/05/20 02:15:40;;;;;;;10.27;6.25;;;;;;;17.41;97.44;101166.78;5040994;28;20058;-72
2022/05/20 02:18:12;;;;;;;6.72;5.55;;;;;;;17.40;97.43;101170.41;5049608;28;20049;-73
2022/05/20 02:20:43;;;;;;;12.00;6.63;;;;;;;17.39;97.71;101166.91;5043549;28;20048;-71
2022/05/20 02:23:19;;;;;;;10.80;6.93;;;;;;;17.33;97.87;101174.53;5047557;28;20063;-70
2022/05/20 02:25:51;;;;;;;12.18;7.78;;;;;;;17.36;98.27;101187.59;5041748;28;20049;-70
2022/05/20 02:28:24;;;;;;;10.23;7.28;;;;;;;17.31;98.77;101169.31;5047305;28;20059;-70
2022/05/20 02:30:52;;;;;;;10.15;7.65;;;;;;;17.33;98.64;101174.53;5056952;28;20994;-70
2022/05/20 02:33:23;;;;;;;8.20;7.32;;;;;;;17.36;98.76;101179.59;5055338;28;20599;-70
2022/05/20 02:35:50;;;;;;;8.50;7.53;;;;;;;17.33;98.64;101170.03;5056147;28;20048;-71
2022/05/20 02:38:20;;;;;;;8.00;7.15;;;;;;;17.34;98.57;101169.09;5051623;28;20060;-71
2022/05/20 02:40:51;;;;;;;8.80;7.80;;;;;;;17.37;98.47;101168.84;5046348;28;20045;-71
2022/05/20 02:43:20;;;;;;;7.60;6.72;;;;;;;17.38;98.35;101177.66;5047722;28;20132;-71
2022/05/20 02:45:49;;;;;;;9.38;7.70;;;;;;;17.37;98.41;101168.84;5047398;28;20060;-71
2022/05/20 02:48:19;;;;;;;8.65;7.38;;;;;;;17.37;97.82;101170.66;5067272;28;20045;-70
2022/05/20 02:50:49;;;;;;;10.48;7.57;;;;;;;17.36;98.13;101158.31;5062416;28;20497;-71
2022/05/20 02:53:17;;;;;;;7.80;7.05;;;;;;;17.31;98.40;101168.47;5034889;28;20495;-70
2022/05/20 02:55:45;;;;;;;9.20;7.75;;;;;;;17.29;98.58;101171.28;5065455;28;20079;-72
2022/05/20 03:04:09;;;;;;;10.93;7.80;;;;;;;17.30;99.42;101177.44;5063803;28;20041;-71
2022/05/20 03:04:09;;;;;;;8.55;7.70;;;;;;;17.27;98.96;101167.03;5048107;28;20047;-70
2022/05/20 03:06:45;;;;;;;8.55;7.57;;;;;;;17.31;99.06;101187.13;5070568;28;20059;-70
2022/05/20 03:09:16;;;;;;;11.43;7.70;;;;;;;17.31;99.37;101177.31;5051182;28;20534;-70
2022/05/20 03:11:44;;;;;;;9.07;8.15;;;;;;;17.29;100.00;101189.03;5044744;28;20054;-70
2022/05/20 03:14:13;;;;;;;9.02;7.85;;;;;;;17.27;100.00;101197.16;5064099;28;20591;-70
2022/05/20 03:16:41;;;;;;;9.68;7.93;;;;;;;17.30;99.90;101198.72;5046512;28;20053;-71
2022/05/20 03:19:09;;;;;;;8.10;7.30;;;;;;;17.34;100.00;101203.69;5062824;28;20047;-70
2022/05/20 03:21:37;;;;;;;8.90;8.00;;;;;;;17.34;99.88;101194.88;5031314;28;20041;-69
2022/05/20 03:24:06;;;;;;;10.60;8.00;;;;;;;17.34;100.00;101200.19;5045937;28;20039;-71
2022/05/20 03:26:34;;;;;;;8.38;7.45;;;;;;;17.35;99.85;101196.56;5063242;28;20137;-70
2022/05/20 03:29:03;;;;;;;7.95;7.15;;;;;;;17.39;99.85;101200.66;5044745;28;20045;-71
2022/05/20 03:31:35;;;;;;;13.80;8.27;;;;;;;17.39;99.86;101196.19;5043849;28;20032;-70
2022/05/20 03:34:07;;;;;;;7.97;6.95;;;;;;;17.40;99.74;101197.88;5060575;28;20055;-70
2022/05/20 03:36:36;;;;;;;8.18;7.32;;;;;;;17.38;98.15;101206.94;5065726;28;20035;-69
2022/05/20 03:39:05;;;;;;;7.57;6.88;;;;;;;17.44;98.03;101206.47;5045852;28;20045;-69
2022/05/20 03:41:33;;;;;;;7.75;7.05;;;;;;;17.44;97.78;101202.00;5050979;28;20825;-69
2022/05/20 03:44:03;;;;;;;8.85;7.03;;;;;;;17.46;98.17;101212.50;5031714;28;20032;-71
2022/05/20 03:46:31;;;;;;;8.90;7.00;;;;;;;17.47;98.26;101206.22;5057351;28;20532;-69
2022/05/20 03:48:59;;;;;;;7.82;7.03;;;;;;;17.48;98.24;101205.28;5029020;28;20063;-71
2022/05/20 03:51:27;;;;;;;7.55;6.72;;;;;;;17.51;97.68;101213.00;5047386;28;20053;-70
2022/05/20 03:53:54;;;;;;;11.48;6.70;;;;;;;17.53;97.85;101207.56;5063000;28;20052;-71
2022/05/20 03:56:23;;;;;;;12.93;6.72;;;;;;;17.56;97.67;101213.50;5063784;28;20053;-71
2022/05/20 03:58:50;;;;;;;10.77;7.97;;;;;;;17.58;97.57;101211.56;5068633;28;20041;-72
2022/05/20 04:04:04;;;;;;;9.18;7.53;;;;;;;17.54;97.42;101215.41;5049154;28;20048;-69
2022/05/20 04:06:31;;;;;;;11.38;7.95;;;;;;;17.56;97.31;101212.63;5060010;28;20047;-69
2022/05/20 04:08:59;;;;;;;10.68;7.82;;;;;;;17.57;96.58;101219.66;5045729;28;20060;-70
2022/05/20 04:11:27;;;;;;;9.63;8.18;;;;;;;17.58;96.52;101222.19;5071169;28;20056;-70
2022/05/20 04:13:54;;;;;;;9.63;7.65;;;;;;;17.58;96.63;101218.69;5066667;28;20043;-70
2022/05/20 04:16:22;;;;;;;8.43;6.80;;;;;;;17.58;96.12;101226.69;5043859;28;20056;-70
2022/05/20 04:18:49;;;;;;;11.18;7.50;;;;;;;17.59;95.52;101226.56;5058524;28;20052;-70
2022/05/20 04:21:16;;;;;;;11.52;8.57;;;;;;;17.60;95.92;101227.41;5062910;28;20511;-69
2022/05/20 04:23:44;;;;;;;10.70;8.18;;;;;;;17.60;96.04;101228.25;5063112;28;20048;-70
2022/05/20 04:26:11;;;;;;;9.02;7.47;;;;;;;17.61;96.47;101234.44;5030608;28;20051;-69
2022/05/20 04:28:39;;;;;;;8.90;8.00;;;;;;;17.60;96.87;101232.72;5011925;28;20395;-68
2022/05/20 04:31:08;;;;;;;12.07;8.88;;;;;;;17.61;97.06;101229.13;5060385;28;20107;-70
2022/05/20 04:33:36;;;;;;;13.00;9.25;;;;;;;17.57;97.23;101235.66;5062070;28;20059;-70
2022/05/20 04:36:05;;;;;;;16.58;10.15;;;;;;;17.57;96.78;101241.81;5059775;28;20511;-70
2022/05/20 04:38:33;;;;;;;12.55;8.90;;;;;;;17.61;96.43;101229.97;5049817;28;20066;-68
2022/05/20 04:49:18;;;;;;;14.82;9.48;;;;;;;17.62;97.24;101242.28;5057327;28;19928;-69
2022/05/20 04:51:45;;;;;;;13.15;10.57;;;;;;;17.66;96.97;101249.06;5049156;28;20044;-69
2022/05/20 04:57:00;;;;;;;14.68;10.07;;;;;;;17.74;96.81;101248.47;5066553;28;20395;-69
2022/05/20 04:59:27;;;;;;;10.35;9.27;;;;;;;17.78;96.88;101246.44;5059287;28;20058;-69
2022/05/20 05:01:54;;;;;;;12.75;9.88;;;;;;;17.85;95.86;101250.31;5065079;28;20052;-69
2022/05/20 05:04:22;;;;;;;13.18;9.80;;;;;;;17.96;95.86;101258.28;5063590;28;20052;-69
2022/05/20 05:06:50;;;;;;;14.02;9.30;;;;;;;18.04;95.24;101258.53;5060795;28;20070;-69
2022/05/20 05:09:17;;;;;;;14.60;10.20;;;;;;;18.11;94.58;101261.56;5064314;28;20079;-69
2022/05/20 05:11:44;;;;;;;15.80;10.70;;;;;;;18.17;93.75;101266.38;5063502;28;20048;-70
2022/05/20 05:14:16;;;;;;;14.90;11.80;;;;;;;18.15;92.96;101271.00;5064980;28;20050;-70
2022/05/20 05:16:43;;;;;;;13.13;10.95;;;;;;;18.07;94.05;101263.59;5062318;28;20049;-69
2022/05/20 05:19:11;;;;;;;15.38;10.65;;;;;;;18.17;93.67;101269.88;5047003;28;20076;-70
2022/05/20 05:21:39;;;;;;;12.75;10.13;;;;;;;18.21;93.84;101265.16;5048624;28;20040;-69
2022/05/20 05:24:07;;;;;;;15.32;9.82;;;;;;;18.35;92.79;101262.22;5042689;28;20397;-69
2022/05/20 05:26:35;;;;;;;10.93;9.73;;;;;;;18.42;92.20;101268.75;5058470;28;20041;-69
2022/05/20 05:29:04;;;;;;;16.02;11.65;;;;;;;18.46;91.66;101272.00;5041086;28;20048;-68
2022/05/20 05:31:31;;;;;;;18.20;10.85;;;;;;;18.45;91.61;101267.63;5043686;28;20323;-70
2022/05/20 05:33:59;;;;;;;13.70;11.38;;;;;;;18.58;91.18;101280.81;5049239;28;20071;-70
2022/05/20 05:36:27;;;;;;;16.65;11.02;;;;;;;18.59;90.06;101280.69;5062705;28;20032;-70
2022/05/20 05:38:55;;;;;;;13.88;10.75;;;;;;;18.59;89.81;101272.69;5059709;28;20095;-69
2022/05/20 05:41:23;;;;;;;14.25;10.73;;;;;;;18.62;89.88;101280.44;5044137;28;20045;-69
2022/05/20 05:43:51;;;;;;;14.20;11.00;;;;;;;18.44;91.18;101277.47;5063661;28;20117;-68
2022/05/20 05:46:18;;;;;;;15.30;9.90;;;;;;;18.66;90.59;101284.56;5061991;28;20047;-68
2022/05/20 05:48:46;;;;;;;10.95;9.85;;;;;;;18.85;89.22;101283.06;5057503;28;20058;-69
2022/05/20 05:51:13;;;;;;;12.40;10.13;;;;;;;18.73;89.86;101287.56;5064930;28;20886;-68
2022/05/20 05:53:41;;;;;;;14.20;10.45;;;;;;;18.75;89.62;101284.81;5064033;28;20058;-68
2022/05/20 05:56:09;;;;;;;13.70;10.77;;;;;;;18.61;90.65;101292.09;5058342;28;20048;-67
2022/05/20 05:58:37;;;;;;;13.23;10.63;;;;;;;18.61;90.55;101289.41;5044994;28;20056;-68
2022/05/20 06:01:05;;;;;;;14.05;11.40;;;;;;;18.67;89.75;101294.25;5069547;28;20052;-68
2022/05/20 06:03:33;;;;;;;12.88;11.45;;;;;;;18.36;90.98;101287.06;5052010;28;20059;-69
2022/05/20 06:06:00;;;;;;;13.85;11.13;;;;;;;18.56;90.06;101296.09;5048303;28;20048;-68
2022/05/20 06:08:28;;;;;;;11.25;9.63;;;;;;;18.69;89.59;101296.84;5032314;28;20055;-69
2022/05/20 06:11:00;;;;;;;10.73;9.23;;;;;;;18.77;88.86;101288.16;5044909;28;20074;-69
2022/05/20 06:13:29;;;;;;;14.25;10.43;;;;;;;18.87;88.03;101295.31;5045802;28;20098;-69
2022/05/20 06:15:57;;;;;;;14.60;10.02;;;;;;;18.66;87.43;101289.88;5041598;28;20071;-68
2022/05/20 06:18:27;;;;;;;12.35;10.07;;;;;;;18.73;87.82;101284.91;5058628;28;20056;-69
2022/05/20 06:20:55;;;;;;;11.90;10.68;;;;;;;18.85;87.35;101293.72;5039041;28;20049;-68
2022/05/20 06:23:23;;;;;;;11.27;9.95;;;;;;;18.90;85.94;101287.03;5059669;28;20048;-68
2022/05/20 06:25:51;;;;;;;17.00;10.40;;;;;;;18.94;85.02;101284.94;5061809;28;20052;-69
2022/05/20 06:28:38;;;;;;;11.02;9.82;;;;;;;19.00;83.57;101283.59;5040107;28;20059;-69
2022/05/20 06:31:06;;;;;;;12.38;11.02;;;;;;;19.07;82.17;101284.78;5039005;28;20062;-71
2022/05/20 06:33:34;;;;;;;12.23;8.40;;;;;;;19.08;81.68;101279.28;5023705;28;20049;-71
2022/05/20 06:41:33;;;;;;;11.70;10.02;;;;;;;19.14;77.99;101292.13;5038037;28;20047;-68
2022/05/20 06:44:02;;;;;;;11.98;9.27;;;;;;;19.41;76.15;101290.78;5059435;28;20048;-70
2022/05/20 06:46:30;;;;;;;11.93;9.38;;;;;;;19.62;75.48;101283.59;5059022;28;20036;-70
2022/05/20 06:49:00;;;;;;;12.73;8.70;;;;;;;19.49;75.49;101286.44;5062185;28;20075;-70
2022/05/20 06:51:34;;;;;;;12.65;7.90;;;;;;;19.60;75.84;101284.69;5044099;28;20042;-70
2022/05/20 06:54:03;;;;;;;15.70;8.88;;;;;;;19.90;74.76;101282.06;5059926;28;20055;-70
2022/05/20 06:56:31;;;;;;;12.25;9.32;;;;;;;20.05;73.74;101279.84;5036742;28;20054;-69
2022/05/20 06:59:00;;;;;;;14.50;8.63;;;;;;;19.89;74.69;101284.84;5044569;28;20054;-70
2022/05/20 07:01:28;;;;;;;12.07;8.65;;;;;;;19.80;75.10;101278.47;5055220;28;20044;-71
2022/05/20 07:03:55;;;;;;;10.95;8.82;;;;;;;19.77;74.54;101270.75;5047018;28;20056;-70
2022/05/20 07:06:25;;;;;;;9.25;7.22;;;;;;;19.99;74.18;101280.38;5058330;28;20045;-70
2022/05/20 07:08:52;;;;;;;12.07;8.27;;;;;;;20.14;73.24;101280.88;5064804;28;20836;-70
2022/05/20 07:11:21;;;;;;;13.80;7.22;;;;;;;20.12;72.21;101277.47;5062034;28;20399;-70
2022/05/20 07:13:52;;;;;;;20.55;6.85;;;;;;;20.17;72.11;101276.09;5058857;28;20063;-69
2022/05/20 07:16:19;;;;;;;12.90;7.15;;;;;;;20.14;70.70;101286.22;5022631;28;20048;-70
2022/05/20 07:18:47;;;;;;;9.48;6.97;;;;;;;20.00;70.04;101281.25;5063094;28;20063;-70
2022/05/20 07:21:14;;;;;;;6.65;5.95;;;;;;;20.08;69.42;101290.25;5037775;28;20052;-69
2022/05/20 07:23:42;;;;;;;12.60;6.22;;;;;;;20.09;68.99;101275.94;5058424;28;20512;-70
2022/05/20 07:26:10;;;;;;;8.18;5.97;;;;;;;20.19;67.71;101281.28;5069896;28;20054;-70
2022/05/20 07:28:37;;;;;;;9.07;5.30;;;;;;;20.04;68.52;101278.16;5054137;28;20037;-71
2022/05/20 07:31:06;;;;;;;8.50;5.40;;;;;;;20.18;67.19;101279.63;5051794;28;20458;-70
2022/05/20 07:33:35;;;;;;;8.98;5.28;;;;;;;20.27;66.42;101267.25;5063339;28;20406;-70
2022/05/20 07:36:02;;;;;;;7.95;5.53;;;;;;;20.33;65.48;101275.56;5047548;28;20052;-70
2022/05/20 07:38:30;;;;;;;9.50;5.88;;;;;;;20.41;65.54;101266.84;5063059;28;20051;-70
2022/05/20 07:40:57;;;;;;;7.72;5.53;;;;;;;20.54;64.08;101278.16;5049512;28;20061;-70
2022/05/20 07:43:25;;;;;;;6.82;5.13;;;;;;;20.40;64.04;101276.72;5062935;28;20047;-70
2022/05/20 07:45:53;;;;;;;9.32;5.05;;;;;;;20.19;65.19;101273.28;5050168;28;20052;-70
2022/05/20 07:48:21;;;;;;;8.70;5.80;;;;;;;20.04;66.05;101269.28;5044944;28;20066;-70
2022/05/20 07:50:52;;;;;;;7.57;4.55;;;;;;;20.14;65.79;101272.84;5052046;28;20056;-70
2022/05/20 07:53:21;;;;;;;5.25;4.32;;;;;;;20.00;64.15;101287.44;5033465;28;20048;-70
2022/05/20 07:55:55;;;;;;;8.38;4.53;;;;;;;20.14;63.46;101270.16;5056459;28;20056;-70
2022/05/20 07:58:34;;;;;;;7.93;5.13;;;;;;;20.20;63.66;101277.63;5048716;28;20044;-70
2022/05/20 08:01:20;;;;;;;6.05;4.53;;;;;;;20.17;63.52;101281.44;5053598;28;20052;-70
2022/05/20 08:06:36;;;;;;;8.65;4.07;;;;;;;20.44;61.84;101272.78;5066037;28;20043;-70
2022/05/20 08:09:06;;;;;;;10.40;5.25;;;;;;;20.61;61.22;101275.75;5050326;28;20064;-70
2022/05/20 08:11:34;;;;;;;5.13;4.55;;;;;;;20.75;60.48;101272.66;5062655;28;20053;-70
2022/05/20 08:14:01;;;;;;;9.27;3.78;;;;;;;20.96;60.81;101275.22;5046882;28;20049;-70
2022/05/20 08:16:29;;;;;;;7.78;3.55;;;;;;;21.14;58.20;101273.50;5053205;28;20043;-70
2022/05/20 08:18:56;;;;;;;7.68;3.33;;;;;;;21.23;57.63;101269.97;5051661;28;20044;-70
2022/05/20 08:21:24;;;;;;;7.45;3.80;;;;;;;21.24;57.97;101279.66;5065792;28;20048;-71
2022/05/20 08:23:51;;;;;;;9.18;4.05;;;;;;;21.14;58.18;101267.31;5046606;28;20052;-70
2022/05/20 08:26:19;;;;;;;6.15;4.30;;;;;;;21.10;57.01;101279.28;5075595;28;20048;-70
2022/05/20 08:28:47;;;;;;;5.57;3.75;;;;;;;20.73;58.53;101272.81;5050888;28;20052;-70
2022/05/20 08:31:15;;;;;;;6.88;3.60;;;;;;;21.09;58.01;101267.72;5042784;28;20070;-70
2022/05/20 08:33:43;;;;;;;5.95;3.40;;;;;;;21.33;56.69;101266.44;5044693;28;20053;-71
2022/05/20 08:36:11;;;;;;;4.60;3.30;;;;;;;21.47;56.60;101271.34;5050938;28;20059;-70
2022/05/20 08:38:38;;;;;;;6.88;3.80;;;;;;;21.52;55.87;101261.03;5069361;28;20070;-71
2022/05/20 08:41:06;;;;;;;7.78;3.85;;;;;;;21.44;56.15;101243.03;5073422;28;20054;-70
2022/05/20 08:43:34;;;;;;;7.15;3.20;;;;;;;21.57;55.16;101249.88;5052553;28;20055;-71
2022/05/20 08:46:06;;;;;;;5.35;3.60;;;;;;;21.26;55.47;101243.91;5063955;28;20048;-71
2022/05/20 08:48:34;;;;;;;4.88;2.95;;;;;;;21.64;55.32;101254.50;5050069;28;20097;-71
2022/05/20 08:51:01;;;;;;;4.68;2.97;;;;;;;21.69;55.02;101249.53;5060581;28;20045;-70
2022/05/20 08:53:34;;;;;;;3.42;2.50;;;;;;;22.13;54.37;101254.31;5056594;28;20056;-71
2022/05/20 08:56:05;;;;;;;5.78;3.80;;;;;;;22.23;53.29;101258.59;5058389;28;20065;-71
2022/05/20 08:58:34;;;;;;;10.48;3.35;;;;;;;21.71;52.61;101252.09;5047393;28;20063;-71
2022/05/20 09:01:01;;;;;;;6.93;3.00;;;;;;;21.72;53.34;101257.28;5057670;28;20045;-70
2022/05/20 09:03:30;;;;;;;7.60;3.30;;;;;;;21.73;52.97;101252.78;5067464;28;20056;-71
2022/05/20 09:06:03;;;;;;;8.20;3.58;;;;;;;22.10;52.95;101267.97;5052751;28;20951;-71
2022/05/20 09:08:33;;;;;;;4.50;2.75;;;;;;;21.88;53.45;101261.16;5071945;28;20172;-71
2022/05/20 09:11:03;;;;;;;7.22;2.70;;;;;;;22.09;52.32;101253.72;5056699;28;20056;-71
2022/05/20 09:16:28;;;;;;;7.28;2.22;;;;;;;21.95;51.02;101254.22;5044745;28;20055;-71
2022/05/20 09:19:12;;;;;;;4.10;2.50;;;;;;;21.98;50.23;101249.44;5030181;28;21386;-70
2022/05/20 09:21:44;;;;;;;6.47;2.45;;;;;;;21.69;49.20;101244.19;5063493;28;20127;-70
2022/05/20 09:24:22;;;;;;;7.30;2.45;;;;;;;22.18;49.66;101252.84;5029428;28;20041;-70
2022/05/20 09:27:03;;;;;;;10.35;3.10;;;;;;;22.19;48.71;101240.28;5056431;28;20378;-70
2022/05/20 09:29:44;;;;;;;3.70;2.40;;;;;;;22.33;49.25;101231.72;5045949;28;20052;-71
2022/05/20 09:32:43;;;;;;;4.10;2.65;;;;;;;22.31;49.34;101224.84;5060148;28;20048;-71
2022/05/20 09:35:21;;;;;;;5.25;1.98;;;;;;;22.43;49.30;101231.66;5050539;28;20045;-71
2022/05/20 09:37:51;;;;;;;6.40;2.65;;;;;;;22.39;46.95;101219.56;5067436;28;20044;-71
2022/05/20 09:40:41;;;;;;;8.77;2.65;;;;;;;22.30;47.54;101228.53;5051240;28;20063;-71
2022/05/20 09:43:31;;;;;;;4.88;2.10;;;;;;;22.67;47.47;101215.78;5049142;28;20135;-71
2022/05/20 09:46:00;;;;;;;4.93;2.78;;;;;;;22.83;47.85;101215.09;5043693;28;20103;-71
2022/05/20 09:48:36;;;;;;;3.83;2.40;;;;;;;22.89;47.79;101206.44;5043675;28;20053;-70
2022/05/20 09:51:25;;;;;;;4.18;2.33;;;;;;;22.63;47.01;101213.56;5020729;28;20040;-70
2022/05/20 09:54:13;;;;;;;7.55;2.40;;;;;;;22.77;46.21;101198.75;5050733;28;21005;-70
2022/05/20 09:56:44;;;;;;;5.03;2.75;;;;;;;22.57;47.08;101220.41;5044629;28;20049;-71
2022/05/20 09:59:37;;;;;;;5.43;2.47;;;;;;;22.14;48.30;101200.50;5048185;28;20060;-71
2022/05/20 10:02:27;;;;;;;8.27;2.05;;;;;;;22.37;48.35;101198.22;5026661;28;20064;-71
2022/05/20 10:05:11;;;;;;;4.82;1.90;;;;;;;22.48;46.57;101200.69;5036537;28;20044;-71
2022/05/20 10:07:53;;;;;;;6.75;2.80;;;;;;;22.57;45.86;101190.03;5045123;28;20111;-71
2022/05/20 10:10:43;;;;;;;5.18;2.42;;;;;;;22.58;46.37;101200.59;5042667;28;20056;-71
2022/05/20 10:13:29;;;;;;;8.10;2.33;;;;;;;22.63;46.82;101186.72;5061255;28;20158;-69
2022/05/20 10:16:11;;;;;;;3.88;2.65;;;;;;;22.97;46.91;101185.00;5052878;28;20058;-71
2022/05/20 10:18:45;;;;;;;7.10;1.52;;;;;;;23.05;43.91;101183.38;5046597;28;20057;-72
2022/05/20 10:21:40;;;;;;;3.03;2.05;;;;;;;23.02;43.56;101181.84;5041888;28;20059;-71
2022/05/20 10:24:49;;;;;;;7.07;2.55;;;;;;;23.03;44.67;101180.00;5047734;28;20029;-71
2022/05/20 10:27:32;;;;;;;7.90;2.63;;;;;;;23.30;44.98;101176.31;4988598;28;20094;-71
2022/05/20 10:33:08;;;;;;;8.87;2.17;;;;;;;23.67;43.96;101173.31;5055639;28;20086;-71
2022/05/20 10:35:55;;;;;;;4.22;2.08;;;;;;;23.94;42.45;101183.81;5046272;28;20057;-71
2022/05/20 10:38:43;;;;;;;3.55;1.88;;;;;;;23.95;40.39;101185.50;5048022;28;20049;-70
2022/05/20 10:41:28;;;;;;;7.82;2.45;;;;;;;23.72;39.89;101163.75;5052700;28;20140;-71
2022/05/20 10:51:09;;;;;;;9.57;2.40;;;;;;;23.73;40.06;101167.28;5060621;28;20892;-70
2022/05/20 10:54:06;;;;;;;13.20;2.55;;;;;;;23.82;41.17;101173.53;5046074;28;20049;-71
2022/05/20 10:57:11;;;;;;;3.70;2.58;;;;;;;23.63;42.32;101162.00;5058000;28;20055;-70
2022/05/20 11:00:08;;;;;;;5.18;2.20;;;;;;;23.98;41.72;101158.28;5065005;28;20731;-71
2022/05/20 11:02:39;;;;;;;4.32;2.22;;;;;;;24.06;41.65;101137.81;5058952;28;20051;-72
2022/05/20 11:05:22;;;;;;;4.57;2.35;;;;;;;24.45;40.91;101135.31;5047687;28;20048;-70
2022/05/20 11:08:11;;;;;;;3.05;1.95;;;;;;;24.76;40.82;101130.91;5060487;28;20040;-71
2022/05/20 11:11:16;;;;;;;3.50;2.00;;;;;;;25.01;38.58;101130.88;5036953;28;20063;-71
2022/05/20 11:14:07;;;;;;;6.05;2.13;;;;;;;24.78;39.63;101138.00;5046921;28;20063;-71
2022/05/20 11:16:57;;;;;;;5.97;2.10;;;;;;;24.75;40.26;101125.72;5030293;28;21198;-70
2022/05/20 11:19:56;;;;;;;6.90;2.38;;;;;;;24.82;39.95;101126.72;5057573;28;20500;-70
2022/05/20 11:22:45;;;;;;;5.05;2.15;;;;;;;25.13;39.51;101124.16;5044064;28;20055;-70
2022/05/20 11:25:46;;;;;;;3.22;1.50;;;;;;;25.06;39.22;101120.44;5039949;28;20052;-69
2022/05/20 11:28:40;;;;;;;7.13;2.35;;;;;;;25.07;38.91;101114.00;5056185;28;20067;-71
2022/05/20 11:31:39;;;;;;;3.88;2.13;;;;;;;25.14;38.28;101100.75;5081759;28;20390;-71
2022/05/20 11:34:22;;;;;;;6.00;2.05;;;;;;;25.50;38.19;101101.09;5061746;28;20033;-71
2022/05/20 11:37:27;;;;;;;3.67;2.13;;;;;;;25.84;37.46;101089.94;5059236;28;20056;-71
2022/05/20 11:40:03;;;;;;;4.20;1.95;;;;;;;26.02;37.04;101087.78;5057017;28;20469;-71
2022/05/20 11:42:49;;;;;;;5.38;2.65;;;;;;;26.18;37.29;101091.41;5049128;28;20052;-71
2022/05/20 11:45:57;;;;;;;4.00;2.10;;;;;;;26.35;37.47;101075.91;5047910;28;20650;-70
2022/05/20 11:48:27;;;;;;;4.47;1.97;;;;;;;26.42;37.92;101082.25;5069207;28;20053;-71
2022/05/20 11:51:02;;;;;;;7.45;2.60;;;;;;;26.31;37.48;101072.75;5061406;28;20808;-71
2022/05/20 11:53:43;;;;;;;4.85;2.00;;;;;;;25.59;37.35;101077.63;5051168;28;20066;-71
2022/05/20 11:56:21;;;;;;;5.32;2.08;;;;;;;26.02;37.36;101065.38;5049393;28;20050;-71
2022/05/20 11:59:07;;;;;;;5.18;1.85;;;;;;;26.20;37.12;101068.59;5048970;28;20526;-70
2022/05/20 12:01:36;;;;;;;5.13;2.50;;;;;;;26.20;37.00;101065.06;5054766;28;20055;-71
2022/05/20 12:04:08;;;;;;;5.05;2.42;;;;;;;26.18;37.00;101054.47;5046829;28;20066;-69
2022/05/20 12:06:46;;;;;;;3.13;2.10;;;;;;;26.19;37.31;101053.44;5047965;28;20059;-68
2022/05/20 12:09:40;;;;;;;6.57;2.58;;;;;;;26.41;36.15;101051.72;5058890;28;20079;-69
2022/05/20 12:12:27;;;;;;;3.85;2.22;;;;;;;26.54;35.27;101043.03;5053057;28;20048;-69
2022/05/20 12:14:57;;;;;;;4.97;2.03;;;;;;;26.59;34.66;101032.50;5049585;28;20048;-69
2022/05/20 12:17:44;;;;;;;3.72;1.80;;;;;;;26.76;34.08;101023.19;5063516;28;20430;-70
2022/05/20 12:30:43;;;;;;;2.60;1.83;;;;;;;27.05;32.58;101009.84;5045938;28;20051;-69
2022/05/20 12:33:25;;;;;;;2.65;1.65;;;;;;;27.33;32.71;101004.59;5030076;28;20056;-70
2022/05/20 12:36:25;;;;;;;2.45;1.60;;;;;;;27.54;32.11;101004.59;5040391;28;20052;-70
2022/05/20 12:39:18;;;;;;;3.70;2.00;;;;;;;27.84;31.39;100999.13;5033600;28;20045;-68